sensor_id;sensor_type;location;lat;lon;timestamp;temperature;humidity
36372;DHT22;22398;51.346;12.372;2023-04-25T00:01:17;8.40;88.30
36372;DHT22;22398;51.346;12.372;2023-04-25T00:06:20;8.60;88.20
36372;DHT22;22398;51.346;12.372;2023-04-25T00:11:28;8.70;88.40
36372;DHT22;22398;51.346;12.372;2023-04-25T00:16:34;8.80;88.40
36372;DHT22;22398;51.346;12.372;2023-04-25T00:21:38;8.70;88.30
36372;DHT22;22398;51.346;12.372;2023-04-25T00:26:42;8.60;88.60
36372;DHT22;22398;51.346;12.372;2023-04-25T00:31:48;8.40;88.60
36372;DHT22;22398;51.346;12.372;2023-04-25T00:36:51;8.10;89.10
36372;DHT22;22398;51.346;12.372;2023-04-25T00:41:55;7.90;90.00
36372;DHT22;22398;51.346;12.372;2023-04-25T00:47:02;7.70;90.40
36372;DHT22;22398;51.346;12.372;2023-04-25T00:52:06;7.50;90.90
36372;DHT22;22398;51.346;12.372;2023-04-25T00:57:10;7.40;91.20
36372;DHT22;22398;51.346;12.372;2023-04-25T01:02:15;7.30;91.70
36372;DHT22;22398;51.346;12.372;2023-04-25T01:07:19;7.20;92.10
36372;DHT22;22398;51.346;12.372;2023-04-25T01:12:23;7.20;92.40
36372;DHT22;22398;51.346;12.372;2023-04-25T01:17:28;7.10;92.70
36372;DHT22;22398;51.346;12.372;2023-04-25T01:22:34;7.10;93.10
36372;DHT22;22398;51.346;12.372;2023-04-25T01:27:38;7.10;93.20
36372;DHT22;22398;51.346;12.372;2023-04-25T01:32:42;7.00;93.50
36372;DHT22;22398;51.346;12.372;2023-04-25T01:37:48;6.90;93.70
36372;DHT22;22398;51.346;12.372;2023-04-25T01:42:51;6.80;93.70
36372;DHT22;22398;51.346;12.372;2023-04-25T01:47:55;6.70;94.00
36372;DHT22;22398;51.346;12.372;2023-04-25T01:53:04;6.70;94.30
36372;DHT22;22398;51.346;12.372;2023-04-25T01:58:08;6.80;94.40
36372;DHT22;22398;51.346;12.372;2023-04-25T02:03:37;6.70;94.40
36372;DHT22;22398;51.346;12.372;2023-04-25T02:08:48;6.70;94.60
36372;DHT22;22398;51.346;12.372;2023-04-25T02:13:52;6.60;94.60
36372;DHT22;22398;51.346;12.372;2023-04-25T02:19:27;6.60;94.70
36372;DHT22;22398;51.346;12.372;2023-04-25T02:24:33;6.60;94.70
36372;DHT22;22398;51.346;12.372;2023-04-25T02:29:37;6.60;94.80
36372;DHT22;22398;51.346;12.372;2023-04-25T02:34:41;6.60;95.00
36372;DHT22;22398;51.346;12.372;2023-04-25T02:39:46;6.60;95.00
36372;DHT22;22398;51.346;12.372;2023-04-25T02:44:50;6.60;95.10
36372;DHT22;22398;51.346;12.372;2023-04-25T02:49:55;6.60;95.10
36372;DHT22;22398;51.346;12.372;2023-04-25T02:55:00;6.50;95.00
36372;DHT22;22398;51.346;12.372;2023-04-25T03:00:05;6.50;95.10
36372;DHT22;22398;51.346;12.372;2023-04-25T03:05:10;6.40;95.00
36372;DHT22;22398;51.346;12.372;2023-04-25T03:10:15;6.30;95.00
36372;DHT22;22398;51.346;12.372;2023-04-25T03:15:19;6.10;95.00
36372;DHT22;22398;51.346;12.372;2023-04-25T03:20:23;6.10;95.40
36372;DHT22;22398;51.346;12.372;2023-04-25T03:25:28;6.00;95.40
36372;DHT22;22398;51.346;12.372;2023-04-25T03:30:32;6.00;95.60
36372;DHT22;22398;51.346;12.372;2023-04-25T03:35:36;6.00;95.70
36372;DHT22;22398;51.346;12.372;2023-04-25T03:40:41;6.00;95.90
36372;DHT22;22398;51.346;12.372;2023-04-25T03:45:55;5.90;96.00
36372;DHT22;22398;51.346;12.372;2023-04-25T03:51:00;5.90;96.30
36372;DHT22;22398;51.346;12.372;2023-04-25T03:56:06;5.90;96.40
36372;DHT22;22398;51.346;12.372;2023-04-25T04:01:12;5.90;96.50
36372;DHT22;22398;51.346;12.372;2023-04-25T04:06:16;5.90;96.60
36372;DHT22;22398;51.346;12.372;2023-04-25T04:11:25;5.80;96.60
36372;DHT22;22398;51.346;12.372;2023-04-25T04:16:31;5.80;96.90
36372;DHT22;22398;51.346;12.372;2023-04-25T04:21:36;5.80;97.00
36372;DHT22;22398;51.346;12.372;2023-04-25T04:26:41;5.80;97.00
36372;DHT22;22398;51.346;12.372;2023-04-25T04:32:12;6.40;98.00
36372;DHT22;22398;51.346;12.372;2023-04-25T04:37:16;7.50;97.60
36372;DHT22;22398;51.346;12.372;2023-04-25T04:42:22;8.30;96.70
36372;DHT22;22398;51.346;12.372;2023-04-25T04:47:36;8.80;95.20
36372;DHT22;22398;51.346;12.372;2023-04-25T04:53:09;8.10;93.60
36372;DHT22;22398;51.346;12.372;2023-04-25T04:58:32;7.40;93.60
36372;DHT22;22398;51.346;12.372;2023-04-25T05:03:55;7.00;94.00
36372;DHT22;22398;51.346;12.372;2023-04-25T05:09:36;7.00;94.40
36372;DHT22;22398;51.346;12.372;2023-04-25T05:14:46;6.90;94.40
36372;DHT22;22398;51.346;12.372;2023-04-25T05:20:09;6.90;94.50
36372;DHT22;22398;51.346;12.372;2023-04-25T05:25:41;7.20;94.70
36372;DHT22;22398;51.346;12.372;2023-04-25T05:31:02;7.00;94.70
36372;DHT22;22398;51.346;12.372;2023-04-25T05:36:18;7.10;94.70
36372;DHT22;22398;51.346;12.372;2023-04-25T05:41:22;7.20;94.70
36372;DHT22;22398;51.346;12.372;2023-04-25T05:46:35;7.40;94.70
36372;DHT22;22398;51.346;12.372;2023-04-25T05:51:47;7.50;94.60
36372;DHT22;22398;51.346;12.372;2023-04-25T05:56:51;7.60;94.30
36372;DHT22;22398;51.346;12.372;2023-04-25T06:01:56;7.70;94.20
36372;DHT22;22398;51.346;12.372;2023-04-25T06:07:00;7.80;94.00
36372;DHT22;22398;51.346;12.372;2023-04-25T06:12:04;7.90;93.60
36372;DHT22;22398;51.346;12.372;2023-04-25T06:17:09;8.00;93.30
36372;DHT22;22398;51.346;12.372;2023-04-25T06:22:13;8.20;93.10
36372;DHT22;22398;51.346;12.372;2023-04-25T06:27:17;8.40;92.80
36372;DHT22;22398;51.346;12.372;2023-04-25T06:32:22;8.60;92.50
36372;DHT22;22398;51.346;12.372;2023-04-25T06:37:29;9.10;92.30
36372;DHT22;22398;51.346;12.372;2023-04-25T06:42:33;9.60;91.60
36372;DHT22;22398;51.346;12.372;2023-04-25T06:47:57;9.90;90.70
36372;DHT22;22398;51.346;12.372;2023-04-25T06:53:02;9.90;90.10
36372;DHT22;22398;51.346;12.372;2023-04-25T06:58:06;9.90;89.40
36372;DHT22;22398;51.346;12.372;2023-04-25T07:03:50;10.00;89.00
36372;DHT22;22398;51.346;12.372;2023-04-25T07:08:54;10.10;88.20
36372;DHT22;22398;51.346;12.372;2023-04-25T07:13:58;10.10;87.80
36372;DHT22;22398;51.346;12.372;2023-04-25T07:19:04;10.00;87.50
36372;DHT22;22398;51.346;12.372;2023-04-25T07:24:08;10.00;87.30
36372;DHT22;22398;51.346;12.372;2023-04-25T07:29:16;10.00;87.00
36372;DHT22;22398;51.346;12.372;2023-04-25T07:34:21;10.00;87.00
36372;DHT22;22398;51.346;12.372;2023-04-25T07:39:25;10.00;86.80
36372;DHT22;22398;51.346;12.372;2023-04-25T07:44:30;9.90;86.60
36372;DHT22;22398;51.346;12.372;2023-04-25T07:49:38;9.90;86.40
36372;DHT22;22398;51.346;12.372;2023-04-25T07:54:42;9.60;86.40
36372;DHT22;22398;51.346;12.372;2023-04-25T07:59:51;9.40;86.80
36372;DHT22;22398;51.346;12.372;2023-04-25T08:04:58;9.20;87.30
36372;DHT22;22398;51.346;12.372;2023-04-25T08:10:02;8.90;87.30
36372;DHT22;22398;51.346;12.372;2023-04-25T08:15:09;8.90;87.80
36372;DHT22;22398;51.346;12.372;2023-04-25T08:20:15;9.00;87.10
36372;DHT22;22398;51.346;12.372;2023-04-25T08:25:20;9.40;86.40
36372;DHT22;22398;51.346;12.372;2023-04-25T08:30:24;9.60;84.70
36372;DHT22;22398;51.346;12.372;2023-04-25T08:35:29;9.90;83.30
36372;DHT22;22398;51.346;12.372;2023-04-25T08:40:37;10.10;81.80
36372;DHT22;22398;51.346;12.372;2023-04-25T08:45:46;10.10;80.80
36372;DHT22;22398;51.346;12.372;2023-04-25T08:51:10;10.10;80.10
36372;DHT22;22398;51.346;12.372;2023-04-25T08:56:20;10.20;79.60
36372;DHT22;22398;51.346;12.372;2023-04-25T09:01:25;10.50;78.60
36372;DHT22;22398;51.346;12.372;2023-04-25T09:06:32;10.70;77.20
36372;DHT22;22398;51.346;12.372;2023-04-25T09:11:37;10.60;76.10
36372;DHT22;22398;51.346;12.372;2023-04-25T09:17:03;10.80;75.60
36372;DHT22;22398;51.346;12.372;2023-04-25T09:22:24;11.10;74.80
36372;DHT22;22398;51.346;12.372;2023-04-25T09:27:28;11.30;74.20
36372;DHT22;22398;51.346;12.372;2023-04-25T09:32:47;11.20;74.00
36372;DHT22;22398;51.346;12.372;2023-04-25T09:37:52;10.90;73.30
36372;DHT22;22398;51.346;12.372;2023-04-25T09:43:19;10.60;73.50
36372;DHT22;22398;51.346;12.372;2023-04-25T09:48:26;10.10;74.30
36372;DHT22;22398;51.346;12.372;2023-04-25T09:53:36;9.80;76.00
36372;DHT22;22398;51.346;12.372;2023-04-25T09:59:03;9.90;76.70
36372;DHT22;22398;51.346;12.372;2023-04-25T10:04:08;10.40;77.30
36372;DHT22;22398;51.346;12.372;2023-04-25T10:09:25;11.10;76.30
36372;DHT22;22398;51.346;12.372;2023-04-25T10:14:31;10.70;74.90
36372;DHT22;22398;51.346;12.372;2023-04-25T10:19:38;10.50;75.50
36372;DHT22;22398;51.346;12.372;2023-04-25T10:24:44;10.40;75.40
36372;DHT22;22398;51.346;12.372;2023-04-25T10:30:00;10.30;75.40
36372;DHT22;22398;51.346;12.372;2023-04-25T10:35:14;10.90;75.40
36372;DHT22;22398;51.346;12.372;2023-04-25T10:40:22;11.30;74.40
36372;DHT22;22398;51.346;12.372;2023-04-25T10:45:25;11.10;74.10
36372;DHT22;22398;51.346;12.372;2023-04-25T10:50:37;10.90;73.90
36372;DHT22;22398;51.346;12.372;2023-04-25T10:55:51;10.60;74.60
36372;DHT22;22398;51.346;12.372;2023-04-25T11:00:55;10.40;74.90
36372;DHT22;22398;51.346;12.372;2023-04-25T11:06:00;10.40;75.30
36372;DHT22;22398;51.346;12.372;2023-04-25T11:11:06;10.50;75.50
36372;DHT22;22398;51.346;12.372;2023-04-25T11:16:12;10.60;75.40
36372;DHT22;22398;51.346;12.372;2023-04-25T11:21:18;10.40;75.10
36372;DHT22;22398;51.346;12.372;2023-04-25T11:26:25;10.30;75.20
36372;DHT22;22398;51.346;12.372;2023-04-25T11:31:29;10.00;75.60
36372;DHT22;22398;51.346;12.372;2023-04-25T11:36:33;9.90;75.60
36372;DHT22;22398;51.346;12.372;2023-04-25T11:41:39;9.90;75.10
36372;DHT22;22398;51.346;12.372;2023-04-25T11:46:43;10.00;74.40
36372;DHT22;22398;51.346;12.372;2023-04-25T11:51:48;10.40;73.50
36372;DHT22;22398;51.346;12.372;2023-04-25T11:56:53;10.60;72.30
36372;DHT22;22398;51.346;12.372;2023-04-25T12:01:57;10.70;71.20
36372;DHT22;22398;51.346;12.372;2023-04-25T12:07:02;10.70;70.20
36372;DHT22;22398;51.346;12.372;2023-04-25T12:12:09;10.70;70.00
36372;DHT22;22398;51.346;12.372;2023-04-25T12:17:13;10.70;69.20
36372;DHT22;22398;51.346;12.372;2023-04-25T12:22:21;11.00;69.00
36372;DHT22;22398;51.346;12.372;2023-04-25T12:27:27;11.50;67.80
36372;DHT22;22398;51.346;12.372;2023-04-25T12:32:30;11.50;66.30
36372;DHT22;22398;51.346;12.372;2023-04-25T12:37:34;11.00;66.00
36372;DHT22;22398;51.346;12.372;2023-04-25T12:42:39;10.80;66.30
36372;DHT22;22398;51.346;12.372;2023-04-25T12:47:42;10.70;66.60
36372;DHT22;22398;51.346;12.372;2023-04-25T12:52:46;10.70;66.80
36372;DHT22;22398;51.346;12.372;2023-04-25T12:57:51;10.70;65.90
36372;DHT22;22398;51.346;12.372;2023-04-25T13:02:55;10.40;64.60
36372;DHT22;22398;51.346;12.372;2023-04-25T13:07:59;10.40;64.30
36372;DHT22;22398;51.346;12.372;2023-04-25T13:13:04;10.30;63.20
36372;DHT22;22398;51.346;12.372;2023-04-25T13:18:08;10.20;62.80
36372;DHT22;22398;51.346;12.372;2023-04-25T13:23:12;10.20;62.70
36372;DHT22;22398;51.346;12.372;2023-04-25T13:28:17;10.00;62.00
36372;DHT22;22398;51.346;12.372;2023-04-25T13:33:21;10.20;62.00
36372;DHT22;22398;51.346;12.372;2023-04-25T13:38:25;10.90;61.70
36372;DHT22;22398;51.346;12.372;2023-04-25T13:43:32;11.60;60.90
36372;DHT22;22398;51.346;12.372;2023-04-25T13:48:36;12.20;59.60
36372;DHT22;22398;51.346;12.372;2023-04-25T13:53:39;12.00;58.50
36372;DHT22;22398;51.346;12.372;2023-04-25T13:58:45;12.10;58.50
36372;DHT22;22398;51.346;12.372;2023-04-25T14:03:48;12.00;58.30
36372;DHT22;22398;51.346;12.372;2023-04-25T14:08:53;12.10;58.20
36372;DHT22;22398;51.346;12.372;2023-04-25T14:13:59;11.90;57.30
36372;DHT22;22398;51.346;12.372;2023-04-25T14:19:03;11.70;56.30
36372;DHT22;22398;51.346;12.372;2023-04-25T14:24:07;11.40;55.10
36372;DHT22;22398;51.346;12.372;2023-04-25T14:29:13;11.20;54.50
36372;DHT22;22398;51.346;12.372;2023-04-25T14:34:16;11.10;54.70
36372;DHT22;22398;51.346;12.372;2023-04-25T14:39:20;11.10;55.20
36372;DHT22;22398;51.346;12.372;2023-04-25T14:44:25;11.20;55.20
36372;DHT22;22398;51.346;12.372;2023-04-25T14:49:29;11.40;54.20
36372;DHT22;22398;51.346;12.372;2023-04-25T14:54:33;11.40;53.70
36372;DHT22;22398;51.346;12.372;2023-04-25T14:59:38;11.40;53.20
36372;DHT22;22398;51.346;12.372;2023-04-25T15:04:42;11.30;53.70
36372;DHT22;22398;51.346;12.372;2023-04-25T15:09:47;11.30;54.30
36372;DHT22;22398;51.346;12.372;2023-04-25T15:14:52;11.00;54.90
36372;DHT22;22398;51.346;12.372;2023-04-25T15:19:56;10.80;55.10
36372;DHT22;22398;51.346;12.372;2023-04-25T15:24:59;10.90;55.70
36372;DHT22;22398;51.346;12.372;2023-04-25T15:30:05;10.80;56.00
36372;DHT22;22398;51.346;12.372;2023-04-25T15:35:10;10.90;56.00
36372;DHT22;22398;51.346;12.372;2023-04-25T15:40:15;10.80;55.70
36372;DHT22;22398;51.346;12.372;2023-04-25T15:45:21;10.90;56.00
36372;DHT22;22398;51.346;12.372;2023-04-25T15:50:26;10.70;55.90
36372;DHT22;22398;51.346;12.372;2023-04-25T15:55:30;10.60;56.10
36372;DHT22;22398;51.346;12.372;2023-04-25T16:00:36;10.70;56.30
36372;DHT22;22398;51.346;12.372;2023-04-25T16:05:41;10.60;56.50
36372;DHT22;22398;51.346;12.372;2023-04-25T16:10:45;10.50;56.60
36372;DHT22;22398;51.346;12.372;2023-04-25T16:15:50;10.30;56.80
36372;DHT22;22398;51.346;12.372;2023-04-25T16:20:54;10.20;57.20
36372;DHT22;22398;51.346;12.372;2023-04-25T16:25:57;10.00;57.70
36372;DHT22;22398;51.346;12.372;2023-04-25T16:31:24;10.00;58.30
36372;DHT22;22398;51.346;12.372;2023-04-25T16:36:28;9.90;58.60
36372;DHT22;22398;51.346;12.372;2023-04-25T16:41:33;9.80;59.10
36372;DHT22;22398;51.346;12.372;2023-04-25T16:46:39;9.80;59.50
36372;DHT22;22398;51.346;12.372;2023-04-25T16:51:42;9.60;59.80
36372;DHT22;22398;51.346;12.372;2023-04-25T16:56:47;9.60;60.30
36372;DHT22;22398;51.346;12.372;2023-04-25T17:01:52;9.50;60.60
36372;DHT22;22398;51.346;12.372;2023-04-25T17:06:55;9.60;61.10
36372;DHT22;22398;51.346;12.372;2023-04-25T17:11:59;9.60;61.40
36372;DHT22;22398;51.346;12.372;2023-04-25T17:17:05;9.70;61.70
36372;DHT22;22398;51.346;12.372;2023-04-25T17:22:08;9.90;61.80
36372;DHT22;22398;51.346;12.372;2023-04-25T17:27:12;9.80;61.80
36372;DHT22;22398;51.346;12.372;2023-04-25T17:32:17;9.70;61.90
36372;DHT22;22398;51.346;12.372;2023-04-25T17:37:21;9.60;61.90
36372;DHT22;22398;51.346;12.372;2023-04-25T17:42:24;9.50;62.10
36372;DHT22;22398;51.346;12.372;2023-04-25T17:47:29;9.40;62.20
36372;DHT22;22398;51.346;12.372;2023-04-25T17:52:32;9.30;62.30
36372;DHT22;22398;51.346;12.372;2023-04-25T17:57:36;9.00;62.60
36372;DHT22;22398;51.346;12.372;2023-04-25T18:02:40;8.80;63.00
36372;DHT22;22398;51.346;12.372;2023-04-25T18:07:46;8.60;63.70
36372;DHT22;22398;51.346;12.372;2023-04-25T18:12:49;8.40;64.20
36372;DHT22;22398;51.346;12.372;2023-04-25T18:17:54;8.20;64.70
36372;DHT22;22398;51.346;12.372;2023-04-25T18:22:59;8.00;65.10
36372;DHT22;22398;51.346;12.372;2023-04-25T18:28:04;7.90;65.70
36372;DHT22;22398;51.346;12.372;2023-04-25T18:33:10;7.80;66.00
36372;DHT22;22398;51.346;12.372;2023-04-25T18:38:14;7.80;66.20
36372;DHT22;22398;51.346;12.372;2023-04-25T18:43:29;7.60;66.50
36372;DHT22;22398;51.346;12.372;2023-04-25T18:48:34;7.60;66.80
36372;DHT22;22398;51.346;12.372;2023-04-25T18:53:38;7.70;66.90
36372;DHT22;22398;51.346;12.372;2023-04-25T18:58:42;7.70;66.90
36372;DHT22;22398;51.346;12.372;2023-04-25T19:03:48;7.70;67.00
36372;DHT22;22398;51.346;12.372;2023-04-25T19:08:57;7.70;67.20
36372;DHT22;22398;51.346;12.372;2023-04-25T19:14:01;7.80;67.30
36372;DHT22;22398;51.346;12.372;2023-04-25T19:19:06;7.90;67.20
36372;DHT22;22398;51.346;12.372;2023-04-25T19:24:10;8.00;67.10
36372;DHT22;22398;51.346;12.372;2023-04-25T19:29:13;8.00;67.00
36372;DHT22;22398;51.346;12.372;2023-04-25T19:34:18;8.00;67.20
36372;DHT22;22398;51.346;12.372;2023-04-25T19:39:22;8.00;67.30
36372;DHT22;22398;51.346;12.372;2023-04-25T19:44:26;8.00;67.30
36372;DHT22;22398;51.346;12.372;2023-04-25T19:49:31;7.90;67.80
36372;DHT22;22398;51.346;12.372;2023-04-25T19:54:35;7.70;68.90
36372;DHT22;22398;51.346;12.372;2023-04-25T19:59:39;7.60;70.20
36372;DHT22;22398;51.346;12.372;2023-04-25T20:04:44;7.40;71.20
36372;DHT22;22398;51.346;12.372;2023-04-25T20:09:48;7.10;72.90
36372;DHT22;22398;51.346;12.372;2023-04-25T20:14:51;6.80;75.40
36372;DHT22;22398;51.346;12.372;2023-04-25T20:19:56;6.80;77.30
36372;DHT22;22398;51.346;12.372;2023-04-25T20:24:59;6.80;78.70
36372;DHT22;22398;51.346;12.372;2023-04-25T20:30:07;6.80;79.70
36372;DHT22;22398;51.346;12.372;2023-04-25T20:35:13;6.80;80.20
36372;DHT22;22398;51.346;12.372;2023-04-25T20:40:17;6.70;80.50
36372;DHT22;22398;51.346;12.372;2023-04-25T20:45:20;6.60;81.00
36372;DHT22;22398;51.346;12.372;2023-04-25T20:50:27;6.60;81.30
36372;DHT22;22398;51.346;12.372;2023-04-25T20:55:31;6.60;81.40
36372;DHT22;22398;51.346;12.372;2023-04-25T21:00:34;6.60;81.40
36372;DHT22;22398;51.346;12.372;2023-04-25T21:05:41;6.60;81.70
36372;DHT22;22398;51.346;12.372;2023-04-25T21:10:45;6.70;81.20
36372;DHT22;22398;51.346;12.372;2023-04-25T21:15:48;6.90;80.90
36372;DHT22;22398;51.346;12.372;2023-04-25T21:20:54;6.90;80.50
36372;DHT22;22398;51.346;12.372;2023-04-25T21:25:57;7.00;80.40
36372;DHT22;22398;51.346;12.372;2023-04-25T21:31:00;7.00;80.30
36372;DHT22;22398;51.346;12.372;2023-04-25T21:36:06;7.00;80.40
36372;DHT22;22398;51.346;12.372;2023-04-25T21:41:10;7.10;80.60
36372;DHT22;22398;51.346;12.372;2023-04-25T21:46:13;6.90;80.60
36372;DHT22;22398;51.346;12.372;2023-04-25T21:51:26;6.70;81.50
36372;DHT22;22398;51.346;12.372;2023-04-25T21:56:29;6.60;82.20
36372;DHT22;22398;51.346;12.372;2023-04-25T22:01:33;6.50;82.70
36372;DHT22;22398;51.346;12.372;2023-04-25T22:06:37;6.50;83.00
36372;DHT22;22398;51.346;12.372;2023-04-25T22:11:41;6.40;83.10
36372;DHT22;22398;51.346;12.372;2023-04-25T22:16:45;6.30;83.50
36372;DHT22;22398;51.346;12.372;2023-04-25T22:21:50;6.20;83.80
36372;DHT22;22398;51.346;12.372;2023-04-25T22:26:53;6.30;84.30
36372;DHT22;22398;51.346;12.372;2023-04-25T22:31:56;6.30;84.40
36372;DHT22;22398;51.346;12.372;2023-04-25T22:37:02;6.30;84.50
36372;DHT22;22398;51.346;12.372;2023-04-25T22:42:05;6.30;84.70
36372;DHT22;22398;51.346;12.372;2023-04-25T22:47:09;6.30;84.70
36372;DHT22;22398;51.346;12.372;2023-04-25T22:52:14;6.10;84.90
36372;DHT22;22398;51.346;12.372;2023-04-25T22:57:18;5.90;85.10
36372;DHT22;22398;51.346;12.372;2023-04-25T23:02:22;5.80;85.70
36372;DHT22;22398;51.346;12.372;2023-04-25T23:07:28;5.80;86.00
36372;DHT22;22398;51.346;12.372;2023-04-25T23:12:33;5.80;86.50
36372;DHT22;22398;51.346;12.372;2023-04-25T23:17:36;5.80;86.90
36372;DHT22;22398;51.346;12.372;2023-04-25T23:22:41;5.70;87.30
36372;DHT22;22398;51.346;12.372;2023-04-25T23:27:45;5.60;88.00
36372;DHT22;22398;51.346;12.372;2023-04-25T23:32:48;5.60;88.80
36372;DHT22;22398;51.346;12.372;2023-04-25T23:37:53;5.50;89.40
36372;DHT22;22398;51.346;12.372;2023-04-25T23:42:57;5.40;90.00
36372;DHT22;22398;51.346;12.372;2023-04-25T23:48:02;5.40;90.30
36372;DHT22;22398;51.346;12.372;2023-04-25T23:53:07;5.40;90.60
36372;DHT22;22398;51.346;12.372;2023-04-25T23:58:10;5.50;90.90
